Time,TemperatureF,DewpointF,PressureIn,WindDirection,WindDirectionDegrees,WindSpeedMPH,WindSpeedGustMPH,Humidity,HourlyPrecipIn,Conditions,Clouds,dailyrainin,SoftwareType,DateUTC
2013-01-03 00:03:00,27.0,-20.7,30.05,North,0,0.0,0.0,11,0.00,CLR,OVC,0.00,WeatherDisplay:10.37,2013-01-03 06:03:00,
2013-01-03 00:08:00,27.0,-19.0,30.05,North,0,0.0,0.0,12,0.00,CLR,OVC,0.00,WeatherDisplay:10.37,2013-01-03 06:08:00,
2013-01-03 00:13:00,27.1,-12.0,30.05,North,0,0.0,0.0,17,0.00,CLR,OVC,0.00,WeatherDisplay:10.37,2013-01-03 06:13:00,
2013-01-03 00:18:00,27.0,-1.9,30.05,North,0,0.0,0.0,28,0.00,CLR,OVC,0.00,WeatherDisplay:10.37,2013-01-03 06:18:00,
2013-01-03 00:23:00,26.8,5.1,30.05,North,0,0.0,0.0,39,0.00,CLR,OVC,0.00,WeatherDisplay:10.37,2013-01-03 06:23:00,
2013-01-03 00:28:00,26.4,5.9,30.06,North,0,0.0,0.0,41,0.00,CLR,OVC,0.00,WeatherDisplay:10.37,2013-01-03 06:28:00,
2013-01-03 00:33:00,26.4,4.2,30.06,North,0,0.0,0.0,38,0.00,CLR,OVC,0.00,WeatherDisplay:10.37,2013-01-03 06:33:00,
2013-01-03 00:38:00,26.4,5.3,30.06,North,0,0.0,0.0,40,0.00,CLR,OVC,0.00,WeatherDisplay:10.37,2013-01-03 06:38:00,
2013-01-03 00:44:00,26.4,7.4,30.06,North,0,0.0,0.0,44,0.00,CLR,OVC,0.00,WeatherDisplay:10.37,2013-01-03 06:44:00,
2013-01-03 00:49:00,26.2,9.2,30.06,North,0,0.0,0.0,48,0.00,CLR,OVC,0.00,WeatherDisplay:10.37,2013-01-03 06:49:00,
2013-01-03 00:54:00,25.5,13.9,30.06,North,0,0.0,0.0,61,0.00,CLR,OVC,0.00,WeatherDisplay:10.37,2013-01-03 06:54:00,
2013-01-03 00:59:00,25.0,14.5,30.06,North,0,0.0,0.0,64,0.00,CLR,OVC,0.00,WeatherDisplay:10.37,2013-01-03 06:59:00,
2013-01-03 01:04:00,24.8,14.7,30.06,North,0,0.0,0.0,65,0.00,CLR,OVC,0.00,WeatherDisplay:10.37,2013-01-03 07:04:00,
2013-01-03 01:09:00,24.4,14.0,30.07,North,0,0.0,0.0,64,0.00,CLR,OVC,0.00,WeatherDisplay:10.37,2013-01-03 07:09:00,
2013-01-03 01:14:00,24.1,13.7,30.07,North,0,0.0,0.0,64,0.00,CLR,OVC,0.00,WeatherDisplay:10.37,2013-01-03 07:14:00,
2013-01-03 01:19:00,23.7,15.0,30.07,North,0,0.0,0.0,69,0.00,CLR,OVC,0.00,WeatherDisplay:10.37,2013-01-03 07:19:00,
2013-01-03 01:24:00,23.4,15.0,30.07,North,0,0.0,0.0,70,0.00,CLR,OVC,0.00,WeatherDisplay:10.37,2013-01-03 07:24:00,
2013-01-03 01:29:00,23.4,15.0,30.07,North,0,0.0,0.0,70,0.00,CLR,OVC,0.00,WeatherDisplay:10.37,2013-01-03 07:29:00,
2013-01-03 01:34:00,23.2,15.2,30.07,North,0,0.0,0.0,71,0.00,CLR,OVC,0.00,WeatherDisplay:10.37,2013-01-03 07:34:00,
2013-01-03 01:39:00,23.0,15.3,30.07,North,0,0.0,0.0,72,0.00,CLR,OVC,0.00,WeatherDisplay:10.37,2013-01-03 07:39:00,
2013-01-03 01:44:00,22.8,15.1,30.07,North,0,0.0,0.0,72,0.00,CLR,OVC,0.00,WeatherDisplay:10.37,2013-01-03 07:44:00,
2013-01-03 01:49:00,22.6,15.3,30.07,North,0,0.0,0.0,73,0.00,CLR,OVC,0.00,WeatherDisplay:10.37,2013-01-03 07:49:00,
2013-01-03 01:54:00,22.6,15.3,30.07,North,0,0.0,0.0,73,0.00,CLR,OVC,0.00,WeatherDisplay:10.37,2013-01-03 07:54:00,
2013-01-03 01:59:00,22.5,15.4,30.08,North,0,0.0,0.0,74,0.00,CLR,OVC,0.00,WeatherDisplay:10.37,2013-01-03 07:59:00,
2013-01-03 02:04:00,22.3,15.2,30.08,North,0,0.0,0.0,74,0.00,CLR,OVC,0.00,WeatherDisplay:10.37,2013-01-03 08:04:00,
2013-01-03 02:09:00,22.1,14.8,30.08,North,0,0.0,0.0,73,0.00,CLR,OVC,0.00,WeatherDisplay:10.37,2013-01-03 08:09:00,
2013-01-03 02:14:00,21.9,14.6,30.08,North,0,0.0,0.0,73,0.00,CLR,OVC,0.00,WeatherDisplay:10.37,2013-01-03 08:14:00,
2013-01-03 02:19:00,21.6,14.6,30.08,North,0,0.0,0.0,74,0.00,CLR,OVC,0.00,WeatherDisplay:10.37,2013-01-03 08:19:00,
2013-01-03 02:24:00,21.2,14.2,30.08,North,0,0.0,0.0,74,0.00,CLR,OVC,0.00,WeatherDisplay:10.37,2013-01-03 08:24:00,
2013-01-03 02:29:00,20.8,13.9,30.08,North,0,0.0,0.0,74,0.00,CLR,OVC,0.00,WeatherDisplay:10.37,2013-01-03 08:29:00,
2013-01-03 02:34:00,20.8,13.5,30.09,North,0,0.0,0.0,73,0.00,CLR,OVC,0.00,WeatherDisplay:10.37,2013-01-03 08:34:00,
2013-01-03 02:39:00,20.8,13.5,30.09,North,0,0.0,0.0,73,0.00,CLR,OVC,0.00,WeatherDisplay:10.37,2013-01-03 08:39:00,
2013-01-03 02:44:00,21.0,13.4,30.09,North,0,0.0,0.0,72,0.00,CLR,OVC,0.00,WeatherDisplay:10.37,2013-01-03 08:44:00,
2013-01-03 02:49:00,20.8,13.5,30.09,North,0,0.0,0.0,73,0.00,CLR,OVC,0.00,WeatherDisplay:10.37,2013-01-03 08:49:00,
2013-01-03 02:54:00,20.7,13.4,30.09,North,0,0.0,0.0,73,0.00,CLR,OVC,0.00,WeatherDisplay:10.37,2013-01-03 08:54:00,
2013-01-03 02:59:00,20.5,13.2,30.09,North,0,0.0,0.0,73,0.00,CLR,OVC,0.00,WeatherDisplay:10.37,2013-01-03 08:59:00,
2013-01-03 03:04:00,20.1,12.8,30.09,North,0,0.0,0.0,73,0.00,CLR,OVC,0.00,WeatherDisplay:10.37,2013-01-03 09:04:00,
2013-01-03 03:09:00,19.8,12.8,30.09,North,0,0.0,0.0,74,0.00,CLR,OVC,0.00,WeatherDisplay:10.37,2013-01-03 09:09:00,
2013-01-03 03:14:00,19.6,12.6,30.09,North,0,0.0,0.0,74,0.00,CLR,OVC,0.00,WeatherDisplay:10.37,2013-01-03 09:14:00,
2013-01-03 03:19:00,19.2,12.3,30.09,North,0,0.0,0.0,74,0.00,CLR,OVC,0.00,WeatherDisplay:10.37,2013-01-03 09:19:00,
2013-01-03 03:24:00,18.7,11.8,30.09,North,0,0.0,0.0,74,0.00,CLR,OVC,0.00,WeatherDisplay:10.37,2013-01-03 09:24:00,
2013-01-03 03:29:00,18.3,11.1,30.09,North,0,0.0,0.0,73,0.00,CLR,OVC,0.00,WeatherDisplay:10.37,2013-01-03 09:29:00,
2013-01-03 03:34:00,18.1,11.2,30.09,North,0,0.0,0.0,74,0.00,CLR,OVC,0.00,WeatherDisplay:10.37,2013-01-03 09:34:00,
2013-01-03 03:39:00,18.0,11.1,30.09,North,0,0.0,0.0,74,0.00,CLR,OVC,0.00,WeatherDisplay:10.37,2013-01-03 09:39:00,
2013-01-03 03:44:00,17.8,11.2,30.09,North,0,0.0,0.0,75,0.00,CLR,OVC,0.00,WeatherDisplay:10.37,2013-01-03 09:44:00,
2013-01-03 03:49:00,17.6,11.0,30.09,North,0,0.0,0.0,75,0.00,CLR,OVC,0.00,WeatherDisplay:10.37,2013-01-03 09:49:00,
2013-01-03 03:54:00,17.2,11.0,30.09,North,0,0.0,0.0,76,0.00,CLR,OVC,0.00,WeatherDisplay:10.37,2013-01-03 09:54:00,
2013-01-03 03:59:00,17.1,10.8,30.09,North,0,0.0,0.0,76,0.00,CLR,OVC,0.00,WeatherDisplay:10.37,2013-01-03 09:59:00,
2013-01-03 04:04:00,16.9,10.6,30.09,North,0,0.0,0.0,76,0.00,CLR,OVC,0.00,WeatherDisplay:10.37,2013-01-03 10:04:00,
2013-01-03 04:09:00,16.5,10.3,30.09,North,0,0.0,0.0,76,0.00,CLR,OVC,0.00,WeatherDisplay:10.37,2013-01-03 10:09:00,
2013-01-03 04:14:00,16.3,10.1,30.09,North,0,0.0,0.0,76,0.00,CLR,OVC,0.00,WeatherDisplay:10.37,2013-01-03 10:14:00,
2013-01-03 04:19:00,16.2,9.9,30.09,North,0,0.0,0.0,76,0.00,CLR,OVC,0.00,WeatherDisplay:10.37,2013-01-03 10:19:00,
2013-01-03 04:24:00,15.8,9.6,30.09,North,0,0.0,0.0,76,0.00,CLR,OVC,0.00,WeatherDisplay:10.37,2013-01-03 10:24:00,
2013-01-03 04:29:00,15.4,9.2,30.09,North,0,0.0,0.0,76,0.00,CLR,OVC,0.00,WeatherDisplay:10.37,2013-01-03 10:29:00,
2013-01-03 04:34:00,15.1,8.9,30.10,North,0,0.0,0.0,76,0.00,CLR,OVC,0.00,WeatherDisplay:10.37,2013-01-03 10:34:00,
2013-01-03 04:39:00,14.7,8.5,30.10,North,0,0.0,0.0,76,0.00,CLR,OVC,0.00,WeatherDisplay:10.37,2013-01-03 10:39:00,
2013-01-03 04:44:00,14.5,8.4,30.11,North,0,0.0,0.0,76,0.00,CLR,OVC,0.00,WeatherDisplay:10.37,2013-01-03 10:44:00,
2013-01-03 04:49:00,14.4,8.2,30.11,North,0,0.0,0.0,76,0.00,CLR,OVC,0.00,WeatherDisplay:10.37,2013-01-03 10:49:00,
2013-01-03 04:54:00,14.0,7.8,30.11,North,0,0.0,0.0,76,0.00,CLR,OVC,0.00,WeatherDisplay:10.37,2013-01-03 10:54:00,
2013-01-03 04:59:00,13.5,7.3,30.11,North,0,0.0,0.0,76,0.00,CLR,OVC,0.00,WeatherDisplay:10.37,2013-01-03 10:59:00,
2013-01-03 05:04:00,13.3,7.1,30.11,North,0,0.0,0.0,76,0.00,CLR,OVC,0.00,WeatherDisplay:10.37,2013-01-03 11:04:00,
2013-01-03 05:09:00,12.9,6.8,30.11,North,0,0.0,0.0,76,0.00,CLR,OVC,0.00,WeatherDisplay:10.37,2013-01-03 11:09:00,
2013-01-03 05:14:00,12.6,6.4,30.11,North,0,0.0,0.0,76,0.00,CLR,OVC,0.00,WeatherDisplay:10.37,2013-01-03 11:14:00,
2013-01-03 05:19:00,12.6,6.4,30.11,North,0,0.0,0.0,76,0.00,CLR,OVC,0.00,WeatherDisplay:10.37,2013-01-03 11:19:00,
2013-01-03 05:24:00,12.2,6.1,30.11,North,0,0.0,0.0,76,0.00,CLR,OVC,0.00,WeatherDisplay:10.37,2013-01-03 11:24:00,
2013-01-03 05:29:00,11.8,5.7,30.11,North,0,0.0,0.0,76,0.00,CLR,OVC,0.00,WeatherDisplay:10.37,2013-01-03 11:29:00,
2013-01-03 05:34:00,11.8,5.7,30.12,North,0,0.0,0.0,76,0.00,CLR,OVC,0.00,WeatherDisplay:10.37,2013-01-03 11:34:00,
2013-01-03 05:39:00,11.7,5.6,30.12,North,0,0.0,0.0,76,0.00,CLR,OVC,0.00,WeatherDisplay:10.37,2013-01-03 11:39:00,
2013-01-03 05:44:00,11.3,5.2,30.12,North,0,0.0,0.0,76,0.00,CLR,OVC,0.00,WeatherDisplay:10.37,2013-01-03 11:44:00,
2013-01-03 05:49:00,11.3,5.2,30.13,North,0,0.0,0.0,76,0.00,CLR,OVC,0.00,WeatherDisplay:10.37,2013-01-03 11:49:00,
2013-01-03 05:54:00,11.3,4.9,30.13,North,0,0.0,0.0,75,0.00,CLR,OVC,0.00,WeatherDisplay:10.37,2013-01-03 11:54:00,
2013-01-03 05:59:00,11.3,4.9,30.13,North,0,0.0,0.0,75,0.00,CLR,OVC,0.00,WeatherDisplay:10.37,2013-01-03 11:59:00,
2013-01-03 06:04:00,11.5,5.1,30.14,North,0,0.0,0.0,75,0.00,CLR,OVC,0.00,WeatherDisplay:10.37,2013-01-03 12:04:00,
2013-01-03 06:09:00,11.5,4.8,30.14,North,0,0.0,0.0,74,0.00,CLR,OVC,0.00,WeatherDisplay:10.37,2013-01-03 12:09:00,
2013-01-03 06:15:00,11.7,5.0,30.14,North,0,0.0,0.0,74,0.00,CLR,OVC,0.00,WeatherDisplay:10.37,2013-01-03 12:15:00,
2013-01-03 06:20:00,11.8,5.1,30.14,North,0,0.0,0.0,74,0.00,CLR,OVC,0.00,WeatherDisplay:10.37,2013-01-03 12:20:00,
2013-01-03 06:25:00,11.8,5.1,30.14,North,0,0.0,0.0,74,0.00,CLR,OVC,0.00,WeatherDisplay:10.37,2013-01-03 12:25:00,
2013-01-03 06:30:00,12.0,5.3,30.14,North,0,0.0,0.0,74,0.00,CLR,OVC,0.00,WeatherDisplay:10.37,2013-01-03 12:30:00,
2013-01-03 06:35:00,12.0,5.3,30.15,North,0,0.0,0.0,74,0.00,CLR,OVC,0.00,WeatherDisplay:10.37,2013-01-03 12:35:00,
2013-01-03 06:40:00,12.0,5.0,30.15,North,0,0.0,0.0,73,0.00,CLR,OVC,0.00,WeatherDisplay:10.37,2013-01-03 12:40:00,
2013-01-03 06:45:00,12.2,5.2,30.15,North,0,0.0,0.0,73,0.00,CLR,OVC,0.00,WeatherDisplay:10.37,2013-01-03 12:45:00,
2013-01-03 06:50:00,12.2,5.2,30.15,North,0,0.0,0.0,73,0.00,CLR,OVC,0.00,WeatherDisplay:10.37,2013-01-03 12:50:00,
2013-01-03 06:55:00,12.2,5.2,30.15,North,0,0.0,0.0,73,0.00,CLR,OVC,0.00,WeatherDisplay:10.37,2013-01-03 12:55:00,
2013-01-03 07:00:00,12.4,5.4,30.15,North,0,0.0,0.0,73,0.00,CLR,OVC,0.00,WeatherDisplay:10.37,2013-01-03 13:00:00,
2013-01-03 07:05:00,12.4,5.4,30.16,North,0,0.0,0.0,73,0.00,CLR,OVC,0.00,WeatherDisplay:10.37,2013-01-03 13:05:00,
2013-01-03 07:10:00,12.4,5.7,30.16,North,0,0.0,0.0,74,0.00,CLR,OVC,0.00,WeatherDisplay:10.37,2013-01-03 13:10:00,
2013-01-03 07:15:00,12.6,5.5,30.16,North,0,0.0,0.0,73,0.00,CLR,OVC,0.00,WeatherDisplay:10.37,2013-01-03 13:15:00,
2013-01-03 07:20:00,12.6,5.5,30.16,North,0,0.0,0.0,73,0.00,CLR,OVC,0.00,WeatherDisplay:10.37,2013-01-03 13:20:00,
2013-01-03 07:25:00,12.6,5.2,30.16,North,0,0.0,0.0,72,0.00,CLR,OVC,0.00,WeatherDisplay:10.37,2013-01-03 13:25:00,
2013-01-03 07:30:00,12.7,5.7,30.16,North,0,0.0,0.0,73,0.00,CLR,OVC,0.00,WeatherDisplay:10.37,2013-01-03 13:30:00,
2013-01-03 07:35:00,12.7,5.7,30.17,North,0,0.0,0.0,73,0.00,CLR,OVC,0.00,WeatherDisplay:10.37,2013-01-03 13:35:00,
2013-01-03 07:40:00,12.9,5.9,30.17,North,0,0.0,0.0,73,0.00,CLR,OVC,0.00,WeatherDisplay:10.37,2013-01-03 13:40:00,
2013-01-03 07:45:00,12.9,5.9,30.17,North,0,0.0,0.0,73,0.00,CLR,OVC,0.00,WeatherDisplay:10.37,2013-01-03 13:45:00,
2013-01-03 07:50:00,13.1,6.1,30.17,North,0,0.0,0.0,73,0.00,CLR,OVC,0.00,WeatherDisplay:10.37,2013-01-03 13:50:00,
2013-01-03 07:55:00,13.3,5.9,30.18,North,0,0.0,0.0,72,0.00,CLR,OVC,0.00,WeatherDisplay:10.37,2013-01-03 13:55:00,
2013-01-03 08:00:00,13.3,6.2,30.18,North,0,0.0,0.0,73,0.00,CLR,OVC,0.00,WeatherDisplay:10.37,2013-01-03 14:00:00,
2013-01-03 08:05:00,13.3,6.2,30.18,North,0,0.0,0.0,73,0.00,CLR,OVC,0.00,WeatherDisplay:10.37,2013-01-03 14:05:00,
2013-01-03 08:10:00,13.5,6.1,30.18,North,0,0.0,0.0,72,0.00,CLR,OVC,0.00,WeatherDisplay:10.37,2013-01-03 14:10:00,
2013-01-03 08:15:00,13.5,6.4,30.18,North,0,0.0,0.0,73,0.00,CLR,OVC,0.00,WeatherDisplay:10.37,2013-01-03 14:15:00,
2013-01-03 08:20:00,13.5,6.4,30.19,North,0,0.0,0.0,73,0.00,CLR,OVC,0.00,WeatherDisplay:10.37,2013-01-03 14:20:00,
2013-01-03 08:25:00,13.6,6.6,30.19,North,0,0.0,0.0,73,0.00,CLR,OVC,0.00,WeatherDisplay:10.37,2013-01-03 14:25:00,
2013-01-03 08:30:00,13.6,6.6,30.19,North,0,0.0,0.0,73,0.00,CLR,OVC,0.00,WeatherDisplay:10.37,2013-01-03 14:30:00,
2013-01-03 08:35:00,13.8,7.1,30.19,North,0,0.0,0.0,74,0.00,CLR,OVC,0.00,WeatherDisplay:10.37,2013-01-03 14:35:00,
2013-01-03 08:40:00,13.8,7.1,30.19,North,0,0.0,0.0,74,0.00,CLR,OVC,0.00,WeatherDisplay:10.37,2013-01-03 14:40:00,
2013-01-03 08:45:00,13.8,6.8,30.19,North,0,0.0,0.0,73,0.00,CLR,OVC,0.00,WeatherDisplay:10.37,2013-01-03 14:45:00,
2013-01-03 08:50:00,14.0,6.9,30.20,North,0,0.0,0.0,73,0.00,CLR,OVC,0.00,WeatherDisplay:10.37,2013-01-03 14:50:00,
2013-01-03 08:55:00,14.0,7.2,30.19,North,0,0.0,0.0,74,0.00,CLR,OVC,0.00,WeatherDisplay:10.37,2013-01-03 14:55:00,
2013-01-03 09:00:00,14.0,6.9,30.19,North,0,0.0,0.0,73,0.00,CLR,OVC,0.00,WeatherDisplay:10.37,2013-01-03 15:00:00,
2013-01-03 09:05:00,14.2,6.8,30.20,North,0,0.0,0.0,72,0.00,CLR,OVC,0.00,WeatherDisplay:10.37,2013-01-03 15:05:00,
2013-01-03 09:10:00,14.2,7.1,30.20,North,0,0.0,0.0,73,0.00,CLR,OVC,0.00,WeatherDisplay:10.37,2013-01-03 15:10:00,
2013-01-03 09:15:00,14.2,7.4,30.20,North,0,0.0,0.0,74,0.00,CLR,OVC,0.00,WeatherDisplay:10.37,2013-01-03 15:15:00,
2013-01-03 09:20:00,14.4,7.6,30.21,North,0,0.0,0.0,74,0.00,CLR,OVC,0.00,WeatherDisplay:10.37,2013-01-03 15:20:00,
2013-01-03 09:25:00,14.2,7.4,30.21,North,0,0.0,0.0,74,0.00,CLR,OVC,0.00,WeatherDisplay:10.37,2013-01-03 15:25:00,
2013-01-03 09:30:00,14.2,7.4,30.21,North,0,0.0,0.0,74,0.00,CLR,OVC,0.00,WeatherDisplay:10.37,2013-01-03 15:30:00,
2013-01-03 09:35:00,14.4,7.3,30.21,North,0,0.0,0.0,73,0.00,CLR,OVC,0.00,WeatherDisplay:10.37,2013-01-03 15:35:00,
2013-01-03 09:40:00,14.4,7.6,30.21,North,0,0.0,0.0,74,0.00,CLR,OVC,0.00,WeatherDisplay:10.37,2013-01-03 15:40:00,
2013-01-03 09:45:00,14.5,7.8,30.21,North,0,0.0,0.0,74,0.00,CLR,OVC,0.00,WeatherDisplay:10.37,2013-01-03 15:45:00,
2013-01-03 09:50:00,14.5,7.8,30.21,North,0,0.0,0.0,74,0.00,CLR,OVC,0.00,WeatherDisplay:10.37,2013-01-03 15:50:00,
2013-01-03 09:55:00,14.5,7.8,30.21,North,0,0.0,0.0,74,0.00,CLR,OVC,0.00,WeatherDisplay:10.37,2013-01-03 15:55:00,
2013-01-03 10:00:00,14.5,7.8,30.22,North,0,0.0,0.0,74,0.00,CLR,OVC,0.00,WeatherDisplay:10.37,2013-01-03 16:00:00,
2013-01-03 10:05:00,14.5,7.8,30.22,North,0,0.0,0.0,74,0.00,CLR,OVC,0.00,WeatherDisplay:10.37,2013-01-03 16:05:00,
2013-01-03 10:11:00,14.5,7.8,30.22,North,0,0.0,0.0,74,0.00,CLR,OVC,0.00,WeatherDisplay:10.37,2013-01-03 16:11:00,
2013-01-03 10:16:00,14.5,8.1,30.22,North,0,0.0,0.0,75,0.00,CLR,OVC,0.00,WeatherDisplay:10.37,2013-01-03 16:16:00,
2013-01-03 10:21:00,14.7,7.9,30.22,North,0,0.0,0.0,74,0.00,CLR,OVC,0.00,WeatherDisplay:10.37,2013-01-03 16:21:00,
2013-01-03 10:26:00,14.7,7.9,30.22,North,0,0.0,0.0,74,0.00,CLR,OVC,0.00,WeatherDisplay:10.37,2013-01-03 16:26:00,
2013-01-03 10:31:00,14.7,8.2,30.22,North,0,0.0,0.0,75,0.00,CLR,OVC,0.00,WeatherDisplay:10.37,2013-01-03 16:31:00,
2013-01-03 10:36:00,14.9,8.1,30.22,North,0,0.0,0.0,74,0.00,CLR,OVC,0.00,WeatherDisplay:10.37,2013-01-03 16:36:00,
2013-01-03 10:41:00,14.9,8.4,30.22,North,0,0.0,0.0,75,0.00,CLR,OVC,0.00,WeatherDisplay:10.37,2013-01-03 16:41:00,
2013-01-03 10:46:00,15.1,8.6,30.22,North,0,0.0,0.0,75,0.00,CLR,OVC,0.00,WeatherDisplay:10.37,2013-01-03 16:46:00,
2013-01-03 10:51:00,14.9,8.4,30.22,North,0,0.0,0.0,75,0.00,CLR,OVC,0.00,WeatherDisplay:10.37,2013-01-03 16:51:00,
2013-01-03 10:56:00,15.1,8.6,30.22,North,0,0.0,0.0,75,0.00,CLR,OVC,0.00,WeatherDisplay:10.37,2013-01-03 16:56:00,
2013-01-03 11:01:00,15.1,8.6,30.22,North,0,0.0,0.0,75,0.00,CLR,OVC,0.00,WeatherDisplay:10.37,2013-01-03 17:01:00,
2013-01-03 11:06:00,15.1,8.9,30.22,North,0,0.0,0.0,76,0.00,CLR,OVC,0.00,WeatherDisplay:10.37,2013-01-03 17:06:00,
2013-01-03 11:11:00,15.3,9.0,30.22,North,0,0.0,0.0,76,0.00,CLR,OVC,0.00,WeatherDisplay:10.37,2013-01-03 17:11:00,
2013-01-03 11:16:00,15.1,8.9,30.22,North,0,0.0,0.0,76,0.00,CLR,OVC,0.00,WeatherDisplay:10.37,2013-01-03 17:16:00,
2013-01-03 11:21:00,15.1,8.9,30.22,North,0,0.0,0.0,76,0.00,CLR,OVC,0.00,WeatherDisplay:10.37,2013-01-03 17:21:00,
2013-01-03 11:26:00,15.3,9.0,30.22,North,0,0.0,0.0,76,0.00,CLR,OVC,0.00,WeatherDisplay:10.37,2013-01-03 17:26:00,
2013-01-03 11:31:00,15.3,9.0,30.22,North,0,0.0,0.0,76,0.00,CLR,OVC,0.00,WeatherDisplay:10.37,2013-01-03 17:31:00,
2013-01-03 11:36:00,15.3,9.0,30.22,North,0,0.0,0.0,76,0.00,CLR,OVC,0.00,WeatherDisplay:10.37,2013-01-03 17:36:00,
2013-01-03 11:41:00,15.3,9.0,30.21,North,0,0.0,0.0,76,0.00,CLR,OVC,0.00,WeatherDisplay:10.37,2013-01-03 17:41:00,
2013-01-03 11:46:00,15.3,9.0,30.21,North,0,0.0,0.0,76,0.00,CLR,OVC,0.00,WeatherDisplay:10.37,2013-01-03 17:46:00,
2013-01-03 11:51:00,15.3,9.0,30.21,North,0,0.0,0.0,76,0.00,CLR,OVC,0.00,WeatherDisplay:10.37,2013-01-03 17:51:00,
2013-01-03 11:56:00,15.3,9.0,30.21,North,0,0.0,0.0,76,0.00,CLR,OVC,0.00,WeatherDisplay:10.37,2013-01-03 17:56:00,
2013-01-03 12:01:00,15.4,9.2,30.21,North,0,0.0,0.0,76,0.00,CLR,OVC,0.00,WeatherDisplay:10.37,2013-01-03 18:01:00,
2013-01-03 12:06:00,15.4,9.2,30.21,North,0,0.0,0.0,76,0.00,CLR,OVC,0.00,WeatherDisplay:10.37,2013-01-03 18:06:00,
2013-01-03 12:11:00,15.4,9.2,30.21,North,0,0.0,0.0,76,0.00,CLR,OVC,0.00,WeatherDisplay:10.37,2013-01-03 18:11:00,
2013-01-03 12:16:00,15.4,9.2,30.21,North,0,0.0,0.0,76,0.00,CLR,OVC,0.00,WeatherDisplay:10.37,2013-01-03 18:16:00,
2013-01-03 12:21:00,15.4,9.2,30.21,North,0,0.0,0.0,76,0.00,CLR,OVC,0.00,WeatherDisplay:10.37,2013-01-03 18:21:00,
2013-01-03 12:26:00,15.4,9.2,30.21,North,0,0.0,0.0,76,0.00,CLR,OVC,0.00,WeatherDisplay:10.37,2013-01-03 18:26:00,
2013-01-03 12:31:00,15.4,9.2,30.21,North,0,0.0,0.0,76,0.00,CLR,OVC,0.00,WeatherDisplay:10.37,2013-01-03 18:31:00,
2013-01-03 12:36:00,15.4,9.2,30.21,North,0,0.0,0.0,76,0.00,CLR,OVC,0.00,WeatherDisplay:10.37,2013-01-03 18:36:00,
2013-01-03 12:41:00,15.6,9.4,30.20,North,0,0.0,0.0,76,0.00,CLR,OVC,0.00,WeatherDisplay:10.37,2013-01-03 18:41:00,
2013-01-03 12:46:00,15.6,9.4,30.20,North,0,0.0,0.0,76,0.00,CLR,OVC,0.00,WeatherDisplay:10.37,2013-01-03 18:46:00,
2013-01-03 12:51:00,15.4,9.2,30.21,North,0,0.0,0.0,76,0.00,CLR,OVC,0.00,WeatherDisplay:10.37,2013-01-03 18:51:00,
2013-01-03 12:56:00,15.6,9.4,30.20,North,0,0.0,0.0,76,0.00,CLR,OVC,0.00,WeatherDisplay:10.37,2013-01-03 18:56:00,
2013-01-03 13:01:00,15.8,9.9,30.20,North,0,0.0,0.0,77,0.00,CLR,OVC,0.00,WeatherDisplay:10.37,2013-01-03 19:01:00,
2013-01-03 13:06:00,16.0,9.5,30.20,North,0,0.0,0.0,75,0.00,CLR,OVC,0.00,WeatherDisplay:10.37,2013-01-03 19:06:00,
2013-01-03 13:11:00,16.0,9.7,30.20,North,0,0.0,0.0,76,0.00,CLR,OVC,0.00,WeatherDisplay:10.37,2013-01-03 19:11:00,
2013-01-03 13:16:00,16.0,9.7,30.21,North,0,0.0,0.0,76,0.00,CLR,OVC,0.00,WeatherDisplay:10.37,2013-01-03 19:16:00,
2013-01-03 13:55:00,16.0,9.7,30.21,North,0,0.0,0.0,76,0.00,CLR,OVC,0.00,WeatherDisplay:10.37,2013-01-03 19:55:00,
2013-01-03 14:00:00,15.8,9.9,30.21,North,0,0.0,0.0,77,0.00,CLR,OVC,0.00,WeatherDisplay:10.37,2013-01-03 20:00:00,
2013-01-03 14:05:00,15.6,9.7,30.21,North,0,0.0,0.0,77,0.00,CLR,OVC,0.00,WeatherDisplay:10.37,2013-01-03 20:05:00,
2013-01-03 14:10:00,15.6,9.7,30.21,North,0,0.0,0.0,77,0.00,CLR,OVC,0.00,WeatherDisplay:10.37,2013-01-03 20:10:00,
2013-01-03 14:15:00,15.6,9.7,30.21,North,0,0.0,0.0,77,0.00,CLR,OVC,0.00,WeatherDisplay:10.37,2013-01-03 20:15:00,
2013-01-03 14:20:00,15.6,9.7,30.22,North,0,0.0,0.0,77,0.00,CLR,OVC,0.00,WeatherDisplay:10.37,2013-01-03 20:20:00,
2013-01-03 14:25:00,15.4,9.2,30.22,North,0,0.0,0.0,76,0.00,CLR,OVC,0.00,WeatherDisplay:10.37,2013-01-03 20:25:00,
2013-01-03 14:30:00,15.1,8.9,30.21,North,0,0.0,0.0,76,0.00,CLR,OVC,0.00,WeatherDisplay:10.37,2013-01-03 20:30:00,
2013-01-03 14:35:00,14.9,9.0,30.22,North,0,0.0,0.0,77,0.00,CLR,OVC,0.00,WeatherDisplay:10.37,2013-01-03 20:35:00,
2013-01-03 14:40:00,14.7,8.8,30.22,North,0,0.0,0.0,77,0.00,CLR,OVC,0.00,WeatherDisplay:10.37,2013-01-03 20:40:00,
2013-01-03 14:45:00,14.5,8.6,30.22,North,0,0.0,0.0,77,0.00,CLR,OVC,0.00,WeatherDisplay:10.37,2013-01-03 20:45:00,
2013-01-03 14:50:00,14.4,8.5,30.22,North,0,0.0,0.0,77,0.00,CLR,OVC,0.00,WeatherDisplay:10.37,2013-01-03 20:50:00,
2013-01-03 14:55:00,14.0,8.1,30.22,North,0,0.0,0.0,77,0.00,CLR,OVC,0.00,WeatherDisplay:10.37,2013-01-03 20:55:00,
2013-01-03 15:00:00,14.2,8.3,30.22,North,0,0.0,0.0,77,0.00,CLR,OVC,0.00,WeatherDisplay:10.37,2013-01-03 21:00:00,
2013-01-03 15:05:00,14.0,8.1,30.22,North,0,0.0,0.0,77,0.00,CLR,OVC,0.00,WeatherDisplay:10.37,2013-01-03 21:05:00,
2013-01-03 15:10:00,14.0,8.1,30.22,North,0,0.0,0.0,77,0.00,CLR,OVC,0.00,WeatherDisplay:10.37,2013-01-03 21:10:00,
2013-01-03 15:15:00,13.8,7.9,30.22,North,0,0.0,0.0,77,0.00,CLR,OVC,0.00,WeatherDisplay:10.37,2013-01-03 21:15:00,
2013-01-03 15:20:00,13.8,7.9,30.23,North,0,0.0,0.0,77,0.00,CLR,OVC,0.00,WeatherDisplay:10.37,2013-01-03 21:20:00,
2013-01-03 15:25:00,13.6,7.8,30.22,North,0,0.0,0.0,77,0.00,CLR,OVC,0.00,WeatherDisplay:10.37,2013-01-03 21:25:00,
2013-01-03 15:30:00,13.8,7.9,30.23,North,0,0.0,0.0,77,0.00,CLR,OVC,0.00,WeatherDisplay:10.37,2013-01-03 21:30:00,
2013-01-03 15:35:00,13.6,7.8,30.23,North,0,0.0,0.0,77,0.00,CLR,OVC,0.00,WeatherDisplay:10.37,2013-01-03 21:35:00,
2013-01-03 15:40:00,13.5,7.6,30.23,North,0,0.0,0.0,77,0.00,CLR,OVC,0.00,WeatherDisplay:10.37,2013-01-03 21:40:00,
2013-01-03 15:45:00,13.3,7.4,30.23,North,0,0.0,0.0,77,0.00,CLR,OVC,0.00,WeatherDisplay:10.37,2013-01-03 21:45:00,
2013-01-03 15:50:00,13.3,7.4,30.23,North,0,0.0,0.0,77,0.00,CLR,OVC,0.00,WeatherDisplay:10.37,2013-01-03 21:50:00,
2013-01-03 15:55:00,13.3,7.4,30.24,North,0,0.0,0.0,77,0.00,CLR,OVC,0.00,WeatherDisplay:10.37,2013-01-03 21:55:00,
2013-01-03 16:00:00,13.3,7.4,30.24,North,0,0.0,0.0,77,0.00,CLR,OVC,0.00,WeatherDisplay:10.37,2013-01-03 22:00:00,
2013-01-03 16:05:00,13.3,7.4,30.24,North,0,0.0,0.0,77,0.00,CLR,OVC,0.00,WeatherDisplay:10.37,2013-01-03 22:05:00,
2013-01-03 16:10:00,12.9,7.1,30.24,North,0,0.0,0.0,77,0.00,CLR,OVC,0.00,WeatherDisplay:10.37,2013-01-03 22:10:00,
2013-01-03 16:15:00,12.6,6.7,30.24,North,0,0.0,0.0,77,0.00,CLR,OVC,0.00,WeatherDisplay:10.37,2013-01-03 22:15:00,
2013-01-03 16:20:00,12.6,6.7,30.24,North,0,0.0,0.0,77,0.00,CLR,OVC,0.00,WeatherDisplay:10.37,2013-01-03 22:20:00,
2013-01-03 16:25:00,12.4,6.5,30.25,North,0,0.0,0.0,77,0.00,CLR,OVC,0.00,WeatherDisplay:10.37,2013-01-03 22:25:00,
2013-01-03 16:30:00,12.0,6.2,30.24,North,0,0.0,0.0,77,0.00,CLR,OVC,0.00,WeatherDisplay:10.37,2013-01-03 22:30:00,
2013-01-03 16:35:00,12.0,6.5,30.24,North,0,0.0,0.0,78,0.00,CLR,OVC,0.00,WeatherDisplay:10.37,2013-01-03 22:35:00,
2013-01-03 16:40:00,11.8,6.3,30.24,North,0,0.0,0.0,78,0.00,CLR,OVC,0.00,WeatherDisplay:10.37,2013-01-03 22:40:00,
2013-01-03 16:45:00,11.7,6.1,30.24,North,0,0.0,0.0,78,0.00,CLR,OVC,0.00,WeatherDisplay:10.37,2013-01-03 22:45:00,
2013-01-03 16:50:00,11.5,5.9,30.25,North,0,0.0,0.0,78,0.00,CLR,OVC,0.00,WeatherDisplay:10.37,2013-01-03 22:50:00,
2013-01-03 16:55:00,11.1,5.6,30.25,North,0,0.0,0.0,78,0.00,CLR,OVC,0.00,WeatherDisplay:10.37,2013-01-03 22:55:00,
2013-01-03 17:00:00,10.8,5.2,30.24,North,0,0.0,0.0,78,0.00,CLR,OVC,0.00,WeatherDisplay:10.37,2013-01-03 23:00:00,
2013-01-03 17:05:00,10.4,4.9,30.25,North,0,0.0,0.0,78,0.00,CLR,OVC,0.00,WeatherDisplay:10.37,2013-01-03 23:05:00,
2013-01-03 17:10:00,10.0,4.5,30.25,North,0,0.0,0.0,78,0.00,CLR,OVC,0.00,WeatherDisplay:10.37,2013-01-03 23:10:00,
2013-01-03 17:15:00,9.5,4.3,30.25,North,0,0.0,0.0,79,0.00,CLR,OVC,0.00,WeatherDisplay:10.37,2013-01-03 23:15:00,
2013-01-03 17:20:00,9.1,3.9,30.25,North,0,0.0,0.0,79,0.00,CLR,OVC,0.00,WeatherDisplay:10.37,2013-01-03 23:20:00,
2013-01-03 17:26:00,8.8,3.3,30.25,North,0,0.0,0.0,78,0.00,CLR,OVC,0.00,WeatherDisplay:10.37,2013-01-03 23:26:00,
2013-01-03 17:31:00,8.4,3.0,30.26,North,0,0.0,0.0,78,0.00,CLR,OVC,0.00,WeatherDisplay:10.37,2013-01-03 23:31:00,
2013-01-03 17:36:00,8.2,2.8,30.25,North,0,0.0,0.0,78,0.00,CLR,OVC,0.00,WeatherDisplay:10.37,2013-01-03 23:36:00,
2013-01-03 17:41:00,8.2,2.8,30.26,North,0,0.0,0.0,78,0.00,CLR,OVC,0.00,WeatherDisplay:10.37,2013-01-03 23:41:00,
2013-01-03 17:46:00,8.2,2.8,30.26,North,0,0.0,0.0,78,0.00,CLR,OVC,0.00,WeatherDisplay:10.37,2013-01-03 23:46:00,
2013-01-03 17:51:00,8.2,2.8,30.26,North,0,0.0,0.0,78,0.00,CLR,OVC,0.00,WeatherDisplay:10.37,2013-01-03 23:51:00,
2013-01-03 17:56:00,8.2,2.8,30.26,North,0,0.0,0.0,78,0.00,CLR,OVC,0.00,WeatherDisplay:10.37,2013-01-03 23:56:00,
2013-01-03 18:01:00,8.1,2.6,30.26,North,0,0.0,0.0,78,0.00,CLR,OVC,0.00,WeatherDisplay:10.37,2013-01-04 00:01:00,
2013-01-03 18:06:00,7.9,2.4,30.26,North,0,0.0,0.0,78,0.00,CLR,OVC,0.00,WeatherDisplay:10.37,2013-01-04 00:06:00,
2013-01-03 18:11:00,7.7,2.3,30.26,North,0,0.0,0.0,78,0.00,CLR,OVC,0.00,WeatherDisplay:10.37,2013-01-04 00:11:00,
2013-01-03 18:16:00,7.5,2.1,30.26,North,0,0.0,0.0,78,0.00,CLR,OVC,0.00,WeatherDisplay:10.37,2013-01-04 00:16:00,
2013-01-03 18:21:00,7.5,2.1,30.26,North,0,0.0,0.0,78,0.00,CLR,OVC,0.00,WeatherDisplay:10.37,2013-01-04 00:21:00,
2013-01-03 18:26:00,7.3,2.2,30.26,North,0,0.0,0.0,79,0.00,CLR,OVC,0.00,WeatherDisplay:10.37,2013-01-04 00:26:00,
2013-01-03 18:31:00,7.2,2.0,30.26,North,0,0.0,0.0,79,0.00,CLR,OVC,0.00,WeatherDisplay:10.37,2013-01-04 00:31:00,
2013-01-03 18:36:00,7.0,1.8,30.26,North,0,0.0,0.0,79,0.00,CLR,OVC,0.00,WeatherDisplay:10.37,2013-01-04 00:36:00,
2013-01-03 18:41:00,6.8,1.7,30.25,North,0,0.0,0.0,79,0.00,CLR,OVC,0.00,WeatherDisplay:10.37,2013-01-04 00:41:00,
2013-01-03 18:46:00,6.8,1.7,30.26,North,0,0.0,0.0,79,0.00,CLR,OVC,0.00,WeatherDisplay:10.37,2013-01-04 00:46:00,
2013-01-03 18:51:00,6.8,1.7,30.26,North,0,0.0,0.0,79,0.00,CLR,OVC,0.00,WeatherDisplay:10.37,2013-01-04 00:51:00,
2013-01-03 18:56:00,6.8,1.4,30.25,North,0,0.0,0.0,78,0.00,CLR,OVC,0.00,WeatherDisplay:10.37,2013-01-04 00:56:00,
2013-01-03 19:01:00,6.8,1.4,30.26,North,0,0.0,0.0,78,0.00,CLR,OVC,0.00,WeatherDisplay:10.37,2013-01-04 01:01:00,
2013-01-03 19:06:00,6.8,1.4,30.25,North,0,0.0,0.0,78,0.00,CLR,OVC,0.00,WeatherDisplay:10.37,2013-01-04 01:06:00,
2013-01-03 19:11:00,6.8,1.4,30.25,North,0,0.0,0.0,78,0.00,CLR,OVC,0.00,WeatherDisplay:10.37,2013-01-04 01:11:00,
2013-01-03 19:16:00,6.8,1.4,30.26,North,0,0.0,0.0,78,0.00,CLR,OVC,0.00,WeatherDisplay:10.37,2013-01-04 01:16:00,
2013-01-03 19:21:00,7.0,1.6,30.25,North,0,0.0,0.0,78,0.00,CLR,OVC,0.00,WeatherDisplay:10.37,2013-01-04 01:21:00,
2013-01-03 19:26:00,7.2,1.7,30.25,North,0,0.0,0.0,78,0.00,CLR,OVC,0.00,WeatherDisplay:10.37,2013-01-04 01:26:00,
2013-01-03 19:31:00,7.2,1.7,30.25,North,0,0.0,0.0,78,0.00,CLR,OVC,0.00,WeatherDisplay:10.37,2013-01-04 01:31:00,
2013-01-03 19:36:00,7.2,1.7,30.25,North,0,0.0,0.0,78,0.00,CLR,OVC,0.00,WeatherDisplay:10.37,2013-01-04 01:36:00,
2013-01-03 19:41:00,7.0,1.6,30.25,North,0,0.0,0.0,78,0.00,CLR,OVC,0.00,WeatherDisplay:10.37,2013-01-04 01:41:00,
2013-01-03 19:46:00,7.2,1.7,30.25,North,0,0.0,0.0,78,0.00,CLR,OVC,0.00,WeatherDisplay:10.37,2013-01-04 01:46:00,
2013-01-03 19:51:00,7.2,1.7,30.25,North,0,0.0,0.0,78,0.00,CLR,OVC,0.00,WeatherDisplay:10.37,2013-01-04 01:51:00,
2013-01-03 19:56:00,7.2,1.5,30.25,North,0,0.0,0.0,77,0.00,CLR,OVC,0.00,WeatherDisplay:10.37,2013-01-04 01:56:00,
2013-01-03 20:01:00,7.2,1.5,30.25,North,0,0.0,0.0,77,0.00,CLR,OVC,0.00,WeatherDisplay:10.37,2013-01-04 02:01:00,
2013-01-03 20:06:00,7.2,1.5,30.25,North,0,0.0,0.0,77,0.00,CLR,OVC,0.00,WeatherDisplay:10.37,2013-01-04 02:06:00,
2013-01-03 20:11:00,7.3,1.6,30.25,North,0,0.0,0.0,77,0.00,CLR,OVC,0.00,WeatherDisplay:10.37,2013-01-04 02:11:00,
2013-01-03 20:16:00,7.3,1.6,30.25,North,0,0.0,0.0,77,0.00,CLR,OVC,0.00,WeatherDisplay:10.37,2013-01-04 02:16:00,
2013-01-03 20:21:00,7.2,1.5,30.25,North,0,0.0,0.0,77,0.00,CLR,OVC,0.00,WeatherDisplay:10.37,2013-01-04 02:21:00,
2013-01-03 20:26:00,7.2,1.5,30.24,North,0,0.0,0.0,77,0.00,CLR,OVC,0.00,WeatherDisplay:10.37,2013-01-04 02:26:00,
2013-01-03 20:31:00,7.2,1.5,30.24,North,0,0.0,0.0,77,0.00,CLR,OVC,0.00,WeatherDisplay:10.37,2013-01-04 02:31:00,
2013-01-03 20:36:00,7.2,1.5,30.24,North,0,0.0,0.0,77,0.00,CLR,OVC,0.00,WeatherDisplay:10.37,2013-01-04 02:36:00,
2013-01-03 20:41:00,7.0,1.3,30.24,North,0,0.0,0.0,77,0.00,CLR,OVC,0.00,WeatherDisplay:10.37,2013-01-04 02:41:00,
2013-01-03 20:46:00,7.0,1.3,30.24,North,0,0.0,0.0,77,0.00,CLR,OVC,0.00,WeatherDisplay:10.37,2013-01-04 02:46:00,
2013-01-03 20:51:00,7.0,1.3,30.24,North,0,0.0,0.0,77,0.00,CLR,OVC,0.00,WeatherDisplay:10.37,2013-01-04 02:51:00,
2013-01-03 20:56:00,7.0,1.3,30.24,North,0,0.0,0.0,77,0.00,CLR,OVC,0.00,WeatherDisplay:10.37,2013-01-04 02:56:00,
2013-01-03 21:01:00,7.2,1.5,30.24,North,0,0.0,0.0,77,0.00,CLR,OVC,0.00,WeatherDisplay:10.37,2013-01-04 03:01:00,
2013-01-03 21:06:00,7.2,1.5,30.23,North,0,0.0,0.0,77,0.00,CLR,OVC,0.00,WeatherDisplay:10.37,2013-01-04 03:06:00,
2013-01-03 21:11:00,7.2,1.5,30.23,North,0,0.0,0.0,77,0.00,CLR,OVC,0.00,WeatherDisplay:10.37,2013-01-04 03:11:00,
2013-01-03 21:16:00,7.2,1.2,30.24,North,0,0.0,0.0,76,0.00,CLR,OVC,0.00,WeatherDisplay:10.37,2013-01-04 03:16:00,
2013-01-03 21:21:00,7.2,1.5,30.24,North,0,0.0,0.0,77,0.00,CLR,OVC,0.00,WeatherDisplay:10.37,2013-01-04 03:21:00,
2013-01-03 21:26:00,7.0,1.3,30.24,North,0,0.0,0.0,77,0.00,CLR,OVC,0.00,WeatherDisplay:10.37,2013-01-04 03:26:00,
2013-01-03 21:31:00,7.0,1.3,30.23,North,0,0.0,0.0,77,0.00,CLR,OVC,0.00,WeatherDisplay:10.37,2013-01-04 03:31:00,
2013-01-03 21:36:00,7.0,1.3,30.23,North,0,0.0,0.0,77,0.00,CLR,OVC,0.00,WeatherDisplay:10.37,2013-01-04 03:36:00,
2013-01-03 21:41:00,7.0,1.3,30.23,North,0,0.0,0.0,77,0.00,CLR,OVC,0.00,WeatherDisplay:10.37,2013-01-04 03:41:00,
2013-01-03 21:46:00,7.0,1.3,30.23,North,0,0.0,0.0,77,0.00,CLR,OVC,0.00,WeatherDisplay:10.37,2013-01-04 03:46:00,
2013-01-03 21:51:00,7.2,1.2,30.23,North,0,0.0,0.0,76,0.00,CLR,OVC,0.00,WeatherDisplay:10.37,2013-01-04 03:51:00,
2013-01-03 21:56:00,7.5,1.8,30.22,North,0,0.0,0.0,77,0.00,CLR,OVC,0.00,WeatherDisplay:10.37,2013-01-04 03:56:00,
2013-01-03 22:01:00,7.9,1.6,30.22,North,0,0.0,0.0,75,0.00,CLR,OVC,0.00,WeatherDisplay:10.37,2013-01-04 04:01:00,
2013-01-03 22:06:00,8.1,1.5,30.22,North,0,0.0,0.0,74,0.00,CLR,OVC,0.00,WeatherDisplay:10.37,2013-01-04 04:06:00,
2013-01-03 22:11:00,8.2,1.7,30.22,North,0,0.0,0.0,74,0.00,CLR,OVC,0.00,WeatherDisplay:10.37,2013-01-04 04:11:00,
2013-01-03 22:16:00,8.2,1.7,30.22,North,0,0.0,0.0,74,0.00,CLR,OVC,0.00,WeatherDisplay:10.37,2013-01-04 04:16:00,
2013-01-03 22:21:00,8.2,1.7,30.22,North,0,0.0,0.0,74,0.00,CLR,OVC,0.00,WeatherDisplay:10.37,2013-01-04 04:21:00,
2013-01-03 22:26:00,8.2,1.9,30.22,North,0,0.0,0.0,75,0.00,CLR,OVC,0.00,WeatherDisplay:10.37,2013-01-04 04:26:00,
2013-01-03 22:31:00,8.2,1.7,30.22,North,0,0.0,0.0,74,0.00,CLR,OVC,0.00,WeatherDisplay:10.37,2013-01-04 04:31:00,
2013-01-03 22:36:00,8.2,1.9,30.22,North,0,0.0,0.0,75,0.00,CLR,OVC,0.00,WeatherDisplay:10.37,2013-01-04 04:36:00,
2013-01-03 22:41:00,8.2,1.9,30.22,North,0,0.0,0.0,75,0.00,CLR,OVC,0.00,WeatherDisplay:10.37,2013-01-04 04:41:00,
2013-01-03 22:46:00,8.2,1.9,30.21,North,0,0.0,0.0,75,0.00,CLR,OVC,0.00,WeatherDisplay:10.37,2013-01-04 04:46:00,
2013-01-03 22:51:00,8.2,1.9,30.21,North,0,0.0,0.0,75,0.00,CLR,OVC,0.00,WeatherDisplay:10.37,2013-01-04 04:51:00,
2013-01-03 22:56:00,8.2,1.9,30.20,North,0,0.0,0.0,75,0.00,CLR,OVC,0.00,WeatherDisplay:10.37,2013-01-04 04:56:00,
2013-01-03 23:01:00,8.2,1.9,30.20,North,0,0.0,0.0,75,0.00,CLR,OVC,0.00,WeatherDisplay:10.37,2013-01-04 05:01:00,
2013-01-03 23:03:00,8.1,1.8,30.20,North,0,0.0,0.0,75,0.00,CLR,OVC,0.00,WeatherDisplay:10.37,2013-01-04 05:03:00,
2013-01-03 23:08:00,8.1,1.8,30.20,North,0,0.0,0.0,75,0.00,CLR,OVC,0.00,WeatherDisplay:10.37,2013-01-04 05:08:00,
2013-01-03 23:13:00,8.1,2.1,30.19,North,0,0.0,0.0,76,0.00,CLR,OVC,0.00,WeatherDisplay:10.37,2013-01-04 05:13:00,
2013-01-03 23:18:00,7.9,1.9,30.19,North,0,0.0,0.0,76,0.00,CLR,OVC,0.00,WeatherDisplay:10.37,2013-01-04 05:18:00,
2013-01-03 23:23:00,7.9,1.9,30.19,North,0,0.0,0.0,76,0.00,CLR,OVC,0.00,WeatherDisplay:10.37,2013-01-04 05:23:00,
2013-01-03 23:28:00,7.9,1.9,30.19,North,0,0.0,0.0,76,0.00,CLR,OVC,0.00,WeatherDisplay:10.37,2013-01-04 05:28:00,
2013-01-03 23:33:00,8.1,1.8,30.19,North,0,0.0,0.0,75,0.00,CLR,OVC,0.00,WeatherDisplay:10.37,2013-01-04 05:33:00,
2013-01-03 23:38:00,8.1,1.8,30.19,North,0,0.0,0.0,75,0.00,CLR,OVC,0.00,WeatherDisplay:10.37,2013-01-04 05:38:00,
2013-01-03 23:43:00,8.2,1.7,30.19,North,0,0.0,0.0,74,0.00,CLR,OVC,0.00,WeatherDisplay:10.37,2013-01-04 05:43:00,
2013-01-03 23:48:00,8.6,1.7,30.19,North,0,0.0,0.0,73,0.00,CLR,OVC,0.00,WeatherDisplay:10.37,2013-01-04 05:48:00,
2013-01-03 23:53:00,8.6,1.7,30.19,North,0,0.0,0.0,73,0.00,CLR,OVC,0.00,WeatherDisplay:10.37,2013-01-04 05:53:00,
2013-01-03 23:58:00,8.6,1.7,30.19,North,0,0.0,0.0,73,0.00,CLR,OVC,0.00,WeatherDisplay:10.37,2013-01-04 05:58:00,